SAAP/PRA METAR and TAF weather

Enter ICAO airport designator
Station Type Date Time Source
SAAP METAR 2019/04/18 12:30 UTC NOAA

SAAP 181230Z 00000KT CAVOK 16/14 Q1014


Station Type Date Time Source
SAAP Decoded METAR 2019/04/18 12:30 UTC NOAA

Parana Aerodrome, Argentina (SAAP) 31-47S 060-29W 78M
Apr 18, 2019 - 08:30 AM EDT / 2019.04.18 1230 UTC
Wind: Calm:0
Visibility: greater than 7 mile(s):0
Temperature: 60 F (16 C)
Dew Point: 57 F (14 C)
Relative Humidity: 87%
Pressure (altimeter): 29.94 in. Hg (1014 hPa)
ob: SAAP 181230Z 00000KT CAVOK 16/14 Q1014
cycle: 12

Station Type Date Time Source
SAAP TAF 2019/04/15 06:06 UTC NOAA

TAF TAF SAAP 150500Z 1506/1606 VRB05KT 9999 SCT025 TX24/1518Z TN14/1512Z
BECMG 1507/1509 5000 BR
TEMPO 1513/1519 16015KT 5000 TSRA BKN020 FEW035CB BKN040
BECMG 1520/1522 12015KT 6000 BKN020

Example: see airport list